Linjiang, China
Current Conditions -  °F | °C
As of 6:00 PM on Thursday 18 Dec 2014 (Local Time) from ZYCC Reporting Station
Haze Haze  
Wind Chill: -15°   Ceiling: Unl
Heat Index:   Visibility: 3mi
Dew Point: -13°   Wind: 11mph
Humidity: 51%   Direction: 150°SSE
Pressure: 30.33"   Gusts: NA
Location:  41.82°N, 126.91°E
Report Text: ZYCC 181000Z 15005MPS 5000 BR NSC M17/M25 Q1027 NOSIG
Loading
Personal Weather Stations






























Interactive Weather Map New forecast layout! Learn more

10-Day Weather Forecast

Advertisements
Track Severe Weather on mobile